createdAt,value
2022-11-26T00:01:24.225Z,5.37
2022-11-26T00:03:53.582Z,6.37
2022-11-26T00:06:31.691Z,4.30
2022-11-26T00:08:59.382Z,4.03
2022-11-26T00:11:26.694Z,6.27
2022-11-26T00:13:54.039Z,10.87
2022-11-26T00:16:21.475Z,10.87
2022-11-26T00:18:48.832Z,8.43
2022-11-26T00:21:21.839Z,8.73
2022-11-26T00:23:49.292Z,10.77
2022-11-26T00:26:18.009Z,6.53
2022-11-26T00:29:01.284Z,9.57
2022-11-26T00:31:29.937Z,12.30
2022-11-26T00:33:57.402Z,9.50
2022-11-26T00:36:27.050Z,15.33
2022-11-26T00:38:56.235Z,13.70
2022-11-26T00:41:24.494Z,14.70
2022-11-26T00:43:52.819Z,9.63
2022-11-26T00:46:20.961Z,10.50
2022-11-26T00:48:48.849Z,10.47
2022-11-26T00:51:21.365Z,11.47
2022-11-26T00:53:48.912Z,9.40
2022-11-26T00:56:20.712Z,8.03
2022-11-26T00:58:49.015Z,9.23
2022-11-26T01:01:18.495Z,11.90
2022-11-26T01:03:46.121Z,9.57
2022-11-26T01:06:15.801Z,8.40
2022-11-26T01:08:43.136Z,8.07
2022-11-26T01:11:12.465Z,7.83
2022-11-26T01:13:39.746Z,8.73
2022-11-26T01:16:15.937Z,7.10
2022-11-26T01:18:43.227Z,9.07
2022-11-26T01:21:13.615Z,11.53
2022-11-26T01:23:40.880Z,5.70
2022-11-26T01:26:13.883Z,6.40
2022-11-26T01:28:41.265Z,6.40
2022-11-26T01:31:13.748Z,9.10
2022-11-26T01:33:41.097Z,7.30
2022-11-26T01:36:34.735Z,7.40
2022-11-26T01:39:05.231Z,6.47
2022-11-26T01:41:47.939Z,9.53
2022-11-26T01:44:21.062Z,7.40
2022-11-26T01:46:48.791Z,9.83
2022-11-26T01:49:24.670Z,7.17
2022-11-26T01:52:01.291Z,10.50
2022-11-26T01:54:29.136Z,5.10
2022-11-26T01:56:57.652Z,10.03
2022-11-26T01:59:24.935Z,9.17
2022-11-26T02:01:53.377Z,8.30
2022-11-26T02:04:41.026Z,5.37
2022-11-26T02:07:08.415Z,8.40
2022-11-26T02:09:36.018Z,6.87
2022-11-26T02:12:03.891Z,11.83
2022-11-26T02:14:33.057Z,14.10
2022-11-26T02:17:00.520Z,8.60
2022-11-26T02:19:30.891Z,11.50
2022-11-26T02:22:13.704Z,10.57
2022-11-26T02:24:51.825Z,9.53
2022-11-26T02:27:40.134Z,6.50
2022-11-26T02:30:09.059Z,14.03
2022-11-26T02:32:51.773Z,7.37
2022-11-26T02:35:23.528Z,9.07
2022-11-26T02:37:58.948Z,5.13
2022-11-26T02:40:26.385Z,29.80
2022-11-26T02:42:53.916Z,9.73
2022-11-26T02:45:24.292Z,8.50
2022-11-26T02:47:53.928Z,7.97
2022-11-26T02:50:23.752Z,5.17
2022-11-26T02:52:51.772Z,6.70
2022-11-26T02:55:20.497Z,6.93
2022-11-26T02:57:49.551Z,9.27
2022-11-26T03:00:17.707Z,6.57
2022-11-26T03:03:03.501Z,5.67
2022-11-26T03:05:35.448Z,7.93
2022-11-26T03:08:04.749Z,7.50
2022-11-26T03:10:32.528Z,10.17
2022-11-26T03:13:00.194Z,12.40
2022-11-26T03:15:27.605Z,8.47
2022-11-26T03:17:54.913Z,5.60
2022-11-26T03:20:22.200Z,6.87
2022-11-26T03:22:49.610Z,9.73
2022-11-26T03:25:16.912Z,8.23
2022-11-26T03:27:44.249Z,11.57
2022-11-26T03:30:11.701Z,7.40
2022-11-26T03:32:39.051Z,8.00
2022-11-26T03:35:06.825Z,8.03
2022-11-26T03:37:34.242Z,7.10
2022-11-26T03:40:01.493Z,5.83
2022-11-26T03:42:28.913Z,6.73
2022-11-26T03:44:56.575Z,5.63
2022-11-26T03:47:23.876Z,5.17
2022-11-26T03:49:52.293Z,4.83
2022-11-26T03:52:20.441Z,3.33
2022-11-26T03:54:47.956Z,6.30
2022-11-26T03:57:15.486Z,6.20
2022-11-26T03:59:42.743Z,2.77
2022-11-26T04:02:10.038Z,2.00
2022-11-26T04:04:37.700Z,4.70
2022-11-26T04:07:05.530Z,5.30
2022-11-26T04:09:32.893Z,3.33
2022-11-26T04:12:00.274Z,3.17
2022-11-26T04:14:27.639Z,4.20
2022-11-26T04:16:55.022Z,4.30
2022-11-26T04:19:22.318Z,3.73
2022-11-26T04:21:49.770Z,2.80
2022-11-26T04:24:17.068Z,4.40
2022-11-26T04:26:44.307Z,4.50
2022-11-26T04:29:11.713Z,3.83
2022-11-26T04:31:39.067Z,5.57
2022-11-26T04:34:06.413Z,5.57
2022-11-26T04:36:33.724Z,6.07
2022-11-26T04:39:00.961Z,4.67
2022-11-26T04:41:28.281Z,4.37
2022-11-26T04:43:55.530Z,16.53
2022-11-26T04:46:22.907Z,10.97
2022-11-26T04:48:50.325Z,7.90
2022-11-26T04:51:17.566Z,8.27
2022-11-26T04:53:44.879Z,5.03
2022-11-26T04:56:12.438Z,8.27
2022-11-26T04:58:39.828Z,8.67
2022-11-26T05:01:07.155Z,6.87
2022-11-26T05:03:36.444Z,5.27
2022-11-26T05:06:04.140Z,8.30
2022-11-26T05:08:31.388Z,8.43
2022-11-26T05:11:01.031Z,8.50
2022-11-26T05:13:28.310Z,7.57
2022-11-26T05:15:55.719Z,7.10
2022-11-26T05:18:23.095Z,7.70
2022-11-26T05:20:50.403Z,6.17
2022-11-26T05:23:17.790Z,6.90
2022-11-26T05:25:45.169Z,7.53
2022-11-26T05:28:12.490Z,7.57
2022-11-26T05:30:39.813Z,10.00
2022-11-26T05:33:07.089Z,7.63
2022-11-26T05:35:34.366Z,6.40
2022-11-26T05:38:01.584Z,10.50
2022-11-26T05:40:29.124Z,8.50
2022-11-26T05:42:56.409Z,8.57
2022-11-26T05:45:23.695Z,10.83
2022-11-26T05:47:51.030Z,7.90
2022-11-26T05:50:18.344Z,4.43
2022-11-26T05:52:45.714Z,8.33
2022-11-26T05:55:13.057Z,7.83
2022-11-26T05:57:40.315Z,6.20
2022-11-26T06:00:08.162Z,12.93
2022-11-26T06:02:35.543Z,7.60
2022-11-26T06:05:02.933Z,6.30
2022-11-26T06:07:30.214Z,8.93
2022-11-26T06:09:57.521Z,7.93
2022-11-26T06:12:24.846Z,7.80
2022-11-26T06:14:52.085Z,9.33
2022-11-26T06:17:19.344Z,9.43
2022-11-26T06:19:46.622Z,8.30
2022-11-26T06:22:13.899Z,7.37
2022-11-26T06:24:41.152Z,8.90
2022-11-26T06:27:08.637Z,8.80
2022-11-26T06:29:36.043Z,10.73
2022-11-26T06:32:03.421Z,6.73
2022-11-26T06:34:30.686Z,7.23
2022-11-26T06:36:57.929Z,9.93
2022-11-26T06:39:25.219Z,11.63
2022-11-26T06:41:53.053Z,8.43
2022-11-26T06:44:20.354Z,15.97
2022-11-26T06:46:47.696Z,8.13
2022-11-26T06:49:15.311Z,5.23
2022-11-26T06:51:42.790Z,10.53
2022-11-26T06:54:09.996Z,58.40
2022-11-26T06:56:37.227Z,44.13
2022-11-26T06:59:04.564Z,23.93
2022-11-26T07:01:32.110Z,10.77
2022-11-26T07:03:59.556Z,8.50
2022-11-26T07:06:28.620Z,8.77
2022-11-26T07:08:57.220Z,5.67
2022-11-26T07:11:25.025Z,6.97
2022-11-26T07:13:52.493Z,8.40
2022-11-26T07:16:19.974Z,10.67
2022-11-26T07:18:51.213Z,10.43
2022-11-26T07:21:19.237Z,6.57
2022-11-26T07:23:47.304Z,6.43
2022-11-26T07:26:15.311Z,6.03
2022-11-26T07:28:42.695Z,6.53
2022-11-26T07:31:16.087Z,9.43
2022-11-26T07:33:44.355Z,10.00
2022-11-26T07:36:16.282Z,9.53
2022-11-26T07:38:43.561Z,6.40
2022-11-26T07:41:12.399Z,6.40
2022-11-26T07:43:40.922Z,6.27
2022-11-26T07:46:09.150Z,7.50
2022-11-26T07:48:39.241Z,10.23
2022-11-26T07:51:07.149Z,9.33
2022-11-26T07:53:35.688Z,4.77
2022-11-26T07:56:06.495Z,7.07
2022-11-26T07:58:33.960Z,9.63
2022-11-26T08:01:12.148Z,11.87
2022-11-26T08:03:43.843Z,7.50
2022-11-26T08:06:13.138Z,7.23
2022-11-26T08:08:40.478Z,11.00
2022-11-26T08:11:17.034Z,7.73
2022-11-26T08:13:44.777Z,6.37
2022-11-26T08:16:12.685Z,4.97
2022-11-26T08:18:40.368Z,9.27
2022-11-26T08:21:08.052Z,4.63
2022-11-26T08:23:35.861Z,3.83
2022-11-26T08:26:22.567Z,6.63
2022-11-26T08:28:51.580Z,3.87
2022-11-26T08:31:19.165Z,5.43
2022-11-26T08:33:46.886Z,4.73
2022-11-26T08:36:14.179Z,3.83
2022-11-26T08:38:41.518Z,6.10
2022-11-26T08:41:12.876Z,2.60
2022-11-26T08:46:28.465Z,7.07
2022-11-26T08:48:56.567Z,2.87
2022-11-26T08:51:24.677Z,6.47
2022-11-26T08:53:51.984Z,5.40
2022-11-26T08:56:19.441Z,5.07
2022-11-26T08:58:48.885Z,4.37
2022-11-26T09:01:24.892Z,4.90
2022-11-26T09:03:53.481Z,2.57
2022-11-26T09:06:22.113Z,5.27
2022-11-26T09:09:08.828Z,4.47
2022-11-26T09:11:38.314Z,6.30
2022-11-26T09:14:05.824Z,6.90
2022-11-26T09:16:33.553Z,4.60
2022-11-26T09:19:01.486Z,5.40
2022-11-26T09:21:29.137Z,5.43
2022-11-26T09:23:56.418Z,6.50
2022-11-26T09:26:25.298Z,4.97
2022-11-26T09:28:52.998Z,5.70
2022-11-26T09:31:20.465Z,4.37
2022-11-26T09:33:48.216Z,5.70
2022-11-26T09:36:17.372Z,6.33
2022-11-26T09:38:45.877Z,6.13
2022-11-26T09:41:13.158Z,7.37
2022-11-26T09:44:02.228Z,6.97
2022-11-26T09:47:09.985Z,6.90
2022-11-26T09:49:34.502Z,7.10
2022-11-26T09:52:01.754Z,11.93
2022-11-26T09:54:30.583Z,3.13
2022-11-26T09:57:18.306Z,4.27
2022-11-26T09:59:46.934Z,4.70
2022-11-26T10:02:21.181Z,3.60
2022-11-26T10:04:49.540Z,3.07
2022-11-26T10:07:19.934Z,5.63
2022-11-26T10:10:06.261Z,3.40
2022-11-26T10:13:17.397Z,6.57
2022-11-26T10:15:42.012Z,4.30
2022-11-26T10:18:20.928Z,3.43
2022-11-26T10:21:03.758Z,5.17
2022-11-26T10:23:31.191Z,5.97
2022-11-26T10:26:19.024Z,4.80
2022-11-26T10:28:47.632Z,3.60
2022-11-26T10:31:25.431Z,4.13
2022-11-26T10:34:02.346Z,3.33
2022-11-26T10:36:43.030Z,6.50
2022-11-26T10:39:14.123Z,2.93
2022-11-26T10:41:41.503Z,4.00
2022-11-26T10:44:27.843Z,5.17
2022-11-26T10:46:55.248Z,11.70
2022-11-26T10:49:23.358Z,4.20
2022-11-26T10:51:51.859Z,5.00
2022-11-26T10:54:30.607Z,4.80
2022-11-26T10:57:02.247Z,3.93
2022-11-26T10:59:36.288Z,4.40
2022-11-26T11:02:06.461Z,4.40
2022-11-26T11:04:37.475Z,5.47
2022-11-26T11:07:10.292Z,5.67
2022-11-26T11:09:42.236Z,5.17
2022-11-26T11:12:12.589Z,6.07
2022-11-26T11:14:42.924Z,6.20
2022-11-26T11:17:25.400Z,2.53
2022-11-26T11:19:54.684Z,3.80
2022-11-26T11:22:22.735Z,2.63
2022-11-26T11:24:50.236Z,2.03
2022-11-26T11:27:25.558Z,3.20
2022-11-26T11:29:53.530Z,3.67
2022-11-26T11:32:34.347Z,3.20
2022-11-26T11:35:20.516Z,7.50
2022-11-26T11:37:49.556Z,4.97
2022-11-26T11:40:20.248Z,5.53
2022-11-26T11:42:51.996Z,3.30
2022-11-26T11:45:23.549Z,6.87
2022-11-26T11:47:57.296Z,3.40
2022-11-26T11:50:31.450Z,3.00
2022-11-26T11:53:04.974Z,4.50
2022-11-26T11:55:52.203Z,4.33
2022-11-26T11:58:27.709Z,5.17
2022-11-26T12:01:13.490Z,3.73
2022-11-26T12:03:54.105Z,4.43
2022-11-26T12:06:40.462Z,5.50
2022-11-26T12:09:22.771Z,4.17
2022-11-26T12:11:56.172Z,4.47
2022-11-26T12:14:26.029Z,5.73
2022-11-26T12:16:58.977Z,6.47
2022-11-26T12:19:39.951Z,3.80
2022-11-26T12:22:14.417Z,3.17
2022-11-26T12:24:58.424Z,3.17
2022-11-26T12:27:34.319Z,4.53
2022-11-26T12:30:15.772Z,3.50
2022-11-26T12:32:55.399Z,3.50
2022-11-26T12:35:31.079Z,2.83
2022-11-26T12:38:00.424Z,3.67
2022-11-26T12:40:36.850Z,5.90
2022-11-26T12:43:13.517Z,3.50
2022-11-26T12:45:49.542Z,5.27
2022-11-26T12:48:28.081Z,4.30
2022-11-26T12:51:01.692Z,3.27
2022-11-26T12:53:34.988Z,4.13
2022-11-26T12:56:17.248Z,4.90
2022-11-26T12:58:47.786Z,4.10
2022-11-26T13:01:15.275Z,9.07
2022-11-26T13:03:42.716Z,5.97
2022-11-26T13:06:33.157Z,4.50
2022-11-26T13:09:15.331Z,3.53
2022-11-26T13:11:50.253Z,3.77
2022-11-26T13:14:35.356Z,4.97
2022-11-26T13:17:16.908Z,5.70
2022-11-26T13:19:50.381Z,5.13
2022-11-26T13:22:35.530Z,6.97
2022-11-26T13:25:21.266Z,4.83
2022-11-26T13:27:54.688Z,4.43
2022-11-26T13:30:25.425Z,5.77
2022-11-26T13:33:00.196Z,7.30
2022-11-26T13:35:36.857Z,4.83
2022-11-26T13:38:19.469Z,4.57
2022-11-26T13:40:51.668Z,4.53
2022-11-26T13:43:40.849Z,5.73
2022-11-26T13:46:22.397Z,6.30
2022-11-26T13:49:08.656Z,5.27
2022-11-26T13:51:43.853Z,4.30
2022-11-26T13:54:20.466Z,2.10
2022-11-26T13:56:50.110Z,4.97
2022-11-26T13:59:28.573Z,4.63
2022-11-26T14:01:56.517Z,2.97
2022-11-26T14:04:23.918Z,9.93
2022-11-26T14:07:07.381Z,5.93
2022-11-26T14:09:47.125Z,4.73
2022-11-26T14:12:15.484Z,4.20
2022-11-26T14:14:43.781Z,5.10
2022-11-26T14:17:12.167Z,4.20
2022-11-26T14:19:42.817Z,4.63
2022-11-26T14:22:10.603Z,1.93
2022-11-26T14:25:07.159Z,4.73
2022-11-26T14:27:34.670Z,4.80
2022-11-26T14:30:07.961Z,5.97
2022-11-26T14:32:45.369Z,5.63
2022-11-26T14:35:34.725Z,9.50
2022-11-26T14:38:03.333Z,20.23
2022-11-26T14:40:32.204Z,20.17
2022-11-26T14:43:09.996Z,9.93
2022-11-26T14:45:37.792Z,7.80
2022-11-26T14:48:05.633Z,6.30
2022-11-26T14:50:34.396Z,6.33
2022-11-26T14:53:05.967Z,7.10
2022-11-26T14:55:33.734Z,4.10
2022-11-26T14:58:04.874Z,3.93
2022-11-26T15:00:35.335Z,5.70
2022-11-26T15:03:04.336Z,8.20
2022-11-26T15:05:40.694Z,7.47
2022-11-26T15:08:20.894Z,9.77
2022-11-26T15:11:02.529Z,8.40
2022-11-26T15:13:29.871Z,10.40
2022-11-26T15:15:59.015Z,9.67
2022-11-26T15:18:30.949Z,11.37
2022-11-26T15:20:59.249Z,5.77
2022-11-26T15:23:30.619Z,12.33
2022-11-26T15:25:58.172Z,8.00
2022-11-26T15:28:25.456Z,7.23
2022-11-26T15:30:55.973Z,11.70
2022-11-26T15:33:23.708Z,15.33
2022-11-26T15:35:57.907Z,13.13
2022-11-26T15:38:26.793Z,14.93
2022-11-26T15:41:02.007Z,15.47
2022-11-26T15:43:44.771Z,15.70
2022-11-26T15:46:21.243Z,13.50
2022-11-26T15:48:56.295Z,12.10
2022-11-26T15:51:23.555Z,14.47
2022-11-26T15:53:51.478Z,13.90
2022-11-26T15:56:20.205Z,14.93
2022-11-26T15:58:49.007Z,14.77
2022-11-26T16:01:20.734Z,15.60
2022-11-26T16:03:55.148Z,16.63
2022-11-26T16:06:31.791Z,21.63
2022-11-26T16:09:00.014Z,25.17
2022-11-26T16:11:27.252Z,17.43
2022-11-26T16:13:54.661Z,22.33
2022-11-26T16:16:24.054Z,24.93
2022-11-26T16:18:59.358Z,16.67
2022-11-26T16:21:29.105Z,33.73
2022-11-26T16:24:00.216Z,188.87
2022-11-26T16:26:28.070Z,144.13
2022-11-26T16:28:55.833Z,122.57
2022-11-26T16:31:23.384Z,88.93
2022-11-26T16:33:50.774Z,56.80
2022-11-26T16:36:22.813Z,39.77
2022-11-26T16:38:50.409Z,38.50
2022-11-26T16:41:18.752Z,39.37
2022-11-26T16:43:46.039Z,37.93
2022-11-26T16:46:17.867Z,25.93
2022-11-26T16:48:46.248Z,43.50
2022-11-26T16:51:13.567Z,43.00
2022-11-26T16:53:41.193Z,39.50
2022-11-26T16:58:43.452Z,39.77
2022-11-26T17:01:10.903Z,36.33
2022-11-26T17:03:38.434Z,35.97
2022-11-26T17:06:18.299Z,29.37
2022-11-26T17:08:49.767Z,35.43
2022-11-26T17:11:17.377Z,39.43
2022-11-26T17:13:44.840Z,40.07
2022-11-26T17:16:16.877Z,41.57
2022-11-26T17:18:44.580Z,40.73
2022-11-26T17:21:12.030Z,32.17
2022-11-26T17:23:39.350Z,30.47
2022-11-26T17:26:18.184Z,25.47
2022-11-26T17:28:45.726Z,26.47
2022-11-26T17:31:13.082Z,26.40
2022-11-26T17:33:41.199Z,22.97
2022-11-26T17:36:16.195Z,17.07
2022-11-26T17:38:44.517Z,19.03
2022-11-26T17:41:12.060Z,20.23
2022-11-26T17:43:39.674Z,18.83
2022-11-26T17:46:13.663Z,20.50
2022-11-26T17:48:40.931Z,17.03
2022-11-26T17:51:08.252Z,15.93
2022-11-26T17:53:35.638Z,21.43
2022-11-26T17:56:03.106Z,38.10
2022-11-26T17:58:30.575Z,55.53
2022-11-26T18:00:57.892Z,60.67
2022-11-26T18:03:25.285Z,49.13
2022-11-26T18:05:52.823Z,50.73
2022-11-26T18:08:20.109Z,49.07
2022-11-26T18:10:47.418Z,48.20
2022-11-26T18:13:14.993Z,47.00
2022-11-26T18:15:42.409Z,60.70
2022-11-26T18:18:09.737Z,51.77
2022-11-26T18:20:37.131Z,54.20
2022-11-26T18:23:05.315Z,70.87
2022-11-26T18:25:34.883Z,73.47
2022-11-26T18:28:02.192Z,58.53
2022-11-26T18:30:30.645Z,59.63
2022-11-26T18:32:58.131Z,54.00
2022-11-26T18:35:25.422Z,51.47
2022-11-26T18:37:52.839Z,51.13
2022-11-26T18:40:20.445Z,51.00
2022-11-26T18:42:51.591Z,51.93
2022-11-26T18:45:18.847Z,46.87
2022-11-26T18:47:46.148Z,50.13
2022-11-26T18:50:14.790Z,37.80
2022-11-26T18:52:42.155Z,33.50
2022-11-26T18:55:10.146Z,31.23
2022-11-26T18:57:37.794Z,29.83
2022-11-26T19:00:05.922Z,27.57
2022-11-26T19:02:34.516Z,28.27
2022-11-26T19:05:02.521Z,25.03
2022-11-26T19:07:31.057Z,31.50
2022-11-26T19:10:00.016Z,29.50
2022-11-26T19:12:27.263Z,35.73
2022-11-26T19:14:54.614Z,33.30
2022-11-26T19:17:21.913Z,22.73
2022-11-26T19:19:49.201Z,33.47
2022-11-26T19:22:16.733Z,41.70
2022-11-26T19:24:43.970Z,40.97
2022-11-26T19:27:11.221Z,31.33
2022-11-26T19:29:38.908Z,31.80
2022-11-26T19:32:06.672Z,33.17
2022-11-26T19:34:33.931Z,29.43
2022-11-26T19:37:01.251Z,12.60
2022-11-26T19:39:28.596Z,22.10
2022-11-26T19:41:56.025Z,19.23
2022-11-26T19:44:23.502Z,25.23
2022-11-26T19:46:50.778Z,18.67
2022-11-26T19:49:18.236Z,16.87
2022-11-26T19:51:45.789Z,17.33
2022-11-26T19:54:13.194Z,16.00
2022-11-26T19:56:42.764Z,16.47
2022-11-26T19:59:10.190Z,17.17
2022-11-26T20:01:37.695Z,20.20
2022-11-26T20:04:06.180Z,21.17
2022-11-26T20:06:34.404Z,20.00
2022-11-26T20:09:01.876Z,18.77
2022-11-26T20:11:30.021Z,20.23
2022-11-26T20:13:58.100Z,23.47
2022-11-26T20:16:26.746Z,22.93
2022-11-26T20:18:54.685Z,24.67
2022-11-26T20:21:25.611Z,32.60
2022-11-26T20:23:53.591Z,30.37
2022-11-26T20:26:25.452Z,27.90
2022-11-26T20:28:53.802Z,25.60
2022-11-26T20:31:23.981Z,22.90
2022-11-26T20:33:52.953Z,18.00
2022-11-26T20:36:21.024Z,13.07
2022-11-26T20:38:51.916Z,9.27
2022-11-26T20:41:19.346Z,11.40
2022-11-26T20:43:52.481Z,13.67
2022-11-26T20:46:24.075Z,20.53
2022-11-26T20:48:51.744Z,30.60
2022-11-26T20:51:22.006Z,30.80
2022-11-26T20:53:52.441Z,37.60
2022-11-26T20:56:21.484Z,36.90
2022-11-26T20:58:48.954Z,29.90
2022-11-26T21:01:17.619Z,33.87
2022-11-26T21:03:46.284Z,26.33
2022-11-26T21:06:14.403Z,28.30
2022-11-26T21:08:42.468Z,24.90
2022-11-26T21:11:10.525Z,26.30
2022-11-26T21:13:39.098Z,23.20
2022-11-26T21:16:09.546Z,16.97
2022-11-26T21:18:36.797Z,13.57
2022-11-26T21:21:11.231Z,15.10
2022-11-26T21:23:39.462Z,15.10
2022-11-26T21:26:10.996Z,12.30
2022-11-26T21:28:38.775Z,10.57
2022-11-26T21:31:07.337Z,7.47
2022-11-26T21:33:35.080Z,7.10
2022-11-26T21:36:09.745Z,6.80
2022-11-26T21:38:37.307Z,4.70
2022-11-26T21:41:05.545Z,5.03
2022-11-26T21:43:32.953Z,8.77
2022-11-26T21:46:04.200Z,8.93
2022-11-26T21:48:31.882Z,20.03
2022-11-26T21:50:59.652Z,26.27
2022-11-26T21:53:27.032Z,18.63
2022-11-26T21:55:54.379Z,26.77
2022-11-26T21:58:21.654Z,17.40
2022-11-26T22:00:48.999Z,13.83
2022-11-26T22:03:16.447Z,16.97
2022-11-26T22:05:43.698Z,26.80
2022-11-26T22:08:11.169Z,32.63
2022-11-26T22:10:38.502Z,38.30
2022-11-26T22:13:07.794Z,37.17
2022-11-26T22:15:35.171Z,33.13
2022-11-26T22:18:02.804Z,35.40
2022-11-26T22:20:30.348Z,33.77
2022-11-26T22:22:58.524Z,36.77
2022-11-26T22:25:25.919Z,29.83
2022-11-26T22:27:53.190Z,25.80
2022-11-26T22:30:20.771Z,22.27
2022-11-26T22:32:48.244Z,23.83
2022-11-26T22:35:15.690Z,22.50
2022-11-26T22:37:43.231Z,20.43
2022-11-26T22:40:10.770Z,26.20
2022-11-26T22:42:38.115Z,27.73
2022-11-26T22:45:05.593Z,23.80
2022-11-26T22:47:33.053Z,25.53
2022-11-26T22:50:00.327Z,21.27
2022-11-26T22:52:27.587Z,19.67
2022-11-26T22:54:55.104Z,17.03
2022-11-26T22:57:25.317Z,17.40
2022-11-26T22:59:54.346Z,20.07
2022-11-26T23:02:21.625Z,25.60
2022-11-26T23:04:49.180Z,18.00
2022-11-26T23:07:16.465Z,22.53
2022-11-26T23:09:46.755Z,20.20
2022-11-26T23:12:14.430Z,19.70
2022-11-26T23:14:41.936Z,25.67
2022-11-26T23:17:09.205Z,24.67
2022-11-26T23:19:36.445Z,30.00
2022-11-26T23:22:03.716Z,33.93
2022-11-26T23:24:31.075Z,25.27
2022-11-26T23:26:58.556Z,28.27
2022-11-26T23:29:25.790Z,41.37
2022-11-26T23:31:53.564Z,35.10
2022-11-26T23:34:20.807Z,36.40
2022-11-26T23:36:48.080Z,37.57
2022-11-26T23:39:15.635Z,32.40
2022-11-26T23:41:44.009Z,35.50
2022-11-26T23:44:11.508Z,31.10
2022-11-26T23:46:38.975Z,26.13
2022-11-26T23:49:06.344Z,21.03
2022-11-26T23:51:34.137Z,19.83
2022-11-26T23:54:01.662Z,22.60
2022-11-26T23:56:30.268Z,24.60
2022-11-26T23:58:59.059Z,29.83
